sensor_id;sensor_type;location;lat;lon;timestamp;temperature;humidity
8459;DHT22;4266;48.816;9.154;2024-02-26T00:00:54;7.80;50.80
8459;DHT22;4266;48.816;9.154;2024-02-26T00:03:20;7.80;50.80
8459;DHT22;4266;48.816;9.154;2024-02-26T00:05:45;7.80;50.90
8459;DHT22;4266;48.816;9.154;2024-02-26T00:08:11;7.90;50.70
8459;DHT22;4266;48.816;9.154;2024-02-26T00:10:37;7.90;50.60
8459;DHT22;4266;48.816;9.154;2024-02-26T00:13:02;7.90;50.50
8459;DHT22;4266;48.816;9.154;2024-02-26T00:15:28;7.90;50.50
8459;DHT22;4266;48.816;9.154;2024-02-26T00:17:54;7.90;50.60
8459;DHT22;4266;48.816;9.154;2024-02-26T00:20:20;7.90;50.40
8459;DHT22;4266;48.816;9.154;2024-02-26T00:22:45;7.90;50.40
8459;DHT22;4266;48.816;9.154;2024-02-26T00:25:12;7.90;50.50
8459;DHT22;4266;48.816;9.154;2024-02-26T00:27:37;7.90;50.50
8459;DHT22;4266;48.816;9.154;2024-02-26T00:30:04;7.90;50.00
8459;DHT22;4266;48.816;9.154;2024-02-26T00:32:30;7.90;50.30
8459;DHT22;4266;48.816;9.154;2024-02-26T00:34:56;7.90;49.80
8459;DHT22;4266;48.816;9.154;2024-02-26T00:37:22;7.90;49.70
8459;DHT22;4266;48.816;9.154;2024-02-26T00:39:48;7.90;49.90
8459;DHT22;4266;48.816;9.154;2024-02-26T00:42:13;8.00;50.10
8459;DHT22;4266;48.816;9.154;2024-02-26T00:44:39;8.00;50.20
8459;DHT22;4266;48.816;9.154;2024-02-26T00:47:05;8.00;49.80
8459;DHT22;4266;48.816;9.154;2024-02-26T00:49:31;8.00;49.80
8459;DHT22;4266;48.816;9.154;2024-02-26T00:51:57;8.00;50.00
8459;DHT22;4266;48.816;9.154;2024-02-26T00:54:22;8.00;49.80
8459;DHT22;4266;48.816;9.154;2024-02-26T00:56:49;8.00;50.20
8459;DHT22;4266;48.816;9.154;2024-02-26T00:59:14;8.00;50.20
8459;DHT22;4266;48.816;9.154;2024-02-26T01:01:40;8.00;50.30
8459;DHT22;4266;48.816;9.154;2024-02-26T01:04:06;7.90;51.10
8459;DHT22;4266;48.816;9.154;2024-02-26T01:06:32;7.90;51.00
8459;DHT22;4266;48.816;9.154;2024-02-26T01:08:58;7.90;51.00
8459;DHT22;4266;48.816;9.154;2024-02-26T01:11:24;7.70;51.50
8459;DHT22;4266;48.816;9.154;2024-02-26T01:13:51;7.60;51.70
8459;DHT22;4266;48.816;9.154;2024-02-26T01:16:17;7.70;51.40
8459;DHT22;4266;48.816;9.154;2024-02-26T01:18:43;7.70;51.40
8459;DHT22;4266;48.816;9.154;2024-02-26T01:21:08;7.70;51.30
8459;DHT22;4266;48.816;9.154;2024-02-26T01:23:35;7.80;51.20
8459;DHT22;4266;48.816;9.154;2024-02-26T01:26:00;7.70;51.10
8459;DHT22;4266;48.816;9.154;2024-02-26T01:28:27;7.60;51.90
8459;DHT22;4266;48.816;9.154;2024-02-26T01:30:52;7.60;51.60
8459;DHT22;4266;48.816;9.154;2024-02-26T01:33:18;7.60;51.70
8459;DHT22;4266;48.816;9.154;2024-02-26T01:35:44;7.60;51.60
8459;DHT22;4266;48.816;9.154;2024-02-26T01:38:09;7.70;51.50
8459;DHT22;4266;48.816;9.154;2024-02-26T01:40:35;7.50;52.20
8459;DHT22;4266;48.816;9.154;2024-02-26T01:43:01;7.50;52.60
8459;DHT22;4266;48.816;9.154;2024-02-26T01:45:26;7.30;52.80
8459;DHT22;4266;48.816;9.154;2024-02-26T01:47:53;7.30;53.30
8459;DHT22;4266;48.816;9.154;2024-02-26T01:50:19;7.30;53.20
8459;DHT22;4266;48.816;9.154;2024-02-26T01:52:45;7.30;53.40
8459;DHT22;4266;48.816;9.154;2024-02-26T01:55:12;7.30;53.90
8459;DHT22;4266;48.816;9.154;2024-02-26T01:57:37;7.20;53.80
8459;DHT22;4266;48.816;9.154;2024-02-26T02:00:04;7.30;54.00
8459;DHT22;4266;48.816;9.154;2024-02-26T02:02:30;7.30;54.20
8459;DHT22;4266;48.816;9.154;2024-02-26T02:04:55;7.40;54.20
8459;DHT22;4266;48.816;9.154;2024-02-26T02:07:21;7.40;54.30
8459;DHT22;4266;48.816;9.154;2024-02-26T02:09:48;7.30;53.90
8459;DHT22;4266;48.816;9.154;2024-02-26T02:12:14;7.30;53.90
8459;DHT22;4266;48.816;9.154;2024-02-26T02:14:40;7.40;53.70
8459;DHT22;4266;48.816;9.154;2024-02-26T02:17:06;7.40;53.70
8459;DHT22;4266;48.816;9.154;2024-02-26T02:19:32;7.40;54.20
8459;DHT22;4266;48.816;9.154;2024-02-26T02:21:57;7.30;54.50
8459;DHT22;4266;48.816;9.154;2024-02-26T02:24:23;7.30;54.50
8459;DHT22;4266;48.816;9.154;2024-02-26T02:26:49;7.30;53.80
8459;DHT22;4266;48.816;9.154;2024-02-26T02:29:15;7.30;53.80
8459;DHT22;4266;48.816;9.154;2024-02-26T02:31:41;7.20;54.40
8459;DHT22;4266;48.816;9.154;2024-02-26T02:34:07;7.30;54.70
8459;DHT22;4266;48.816;9.154;2024-02-26T02:36:32;7.30;54.50
8459;DHT22;4266;48.816;9.154;2024-02-26T02:38:58;7.30;54.10
8459;DHT22;4266;48.816;9.154;2024-02-26T02:41:23;7.30;54.20
8459;DHT22;4266;48.816;9.154;2024-02-26T02:43:50;7.30;54.00
8459;DHT22;4266;48.816;9.154;2024-02-26T02:46:15;7.30;54.00
8459;DHT22;4266;48.816;9.154;2024-02-26T02:48:42;7.20;54.00
8459;DHT22;4266;48.816;9.154;2024-02-26T02:51:08;7.20;54.00
8459;DHT22;4266;48.816;9.154;2024-02-26T02:53:34;7.40;53.50
8459;DHT22;4266;48.816;9.154;2024-02-26T02:56:00;7.40;53.80
8459;DHT22;4266;48.816;9.154;2024-02-26T02:58:25;7.50;53.10
8459;DHT22;4266;48.816;9.154;2024-02-26T03:00:51;7.50;53.60
8459;DHT22;4266;48.816;9.154;2024-02-26T03:03:17;7.40;53.90
8459;DHT22;4266;48.816;9.154;2024-02-26T03:05:43;7.40;55.20
8459;DHT22;4266;48.816;9.154;2024-02-26T03:08:09;7.30;55.20
8459;DHT22;4266;48.816;9.154;2024-02-26T03:10:35;7.40;55.80
8459;DHT22;4266;48.816;9.154;2024-02-26T03:13:01;7.30;56.50
8459;DHT22;4266;48.816;9.154;2024-02-26T03:15:26;7.30;55.70
8459;DHT22;4266;48.816;9.154;2024-02-26T03:17:52;7.10;56.20
8459;DHT22;4266;48.816;9.154;2024-02-26T03:20:19;7.10;57.30
8459;DHT22;4266;48.816;9.154;2024-02-26T03:22:44;7.10;57.20
8459;DHT22;4266;48.816;9.154;2024-02-26T03:25:10;7.20;56.70
8459;DHT22;4266;48.816;9.154;2024-02-26T03:27:36;7.10;57.80
8459;DHT22;4266;48.816;9.154;2024-02-26T03:30:03;7.00;57.70
8459;DHT22;4266;48.816;9.154;2024-02-26T03:32:29;7.10;57.30
8459;DHT22;4266;48.816;9.154;2024-02-26T03:34:55;7.40;55.00
8459;DHT22;4266;48.816;9.154;2024-02-26T03:37:21;7.40;56.80
8459;DHT22;4266;48.816;9.154;2024-02-26T03:39:47;7.40;56.90
8459;DHT22;4266;48.816;9.154;2024-02-26T03:42:13;7.40;56.90
8459;DHT22;4266;48.816;9.154;2024-02-26T03:44:38;7.30;56.90
8459;DHT22;4266;48.816;9.154;2024-02-26T03:47:04;7.30;56.80
8459;DHT22;4266;48.816;9.154;2024-02-26T03:49:30;7.30;57.10
8459;DHT22;4266;48.816;9.154;2024-02-26T03:51:56;7.20;57.60
8459;DHT22;4266;48.816;9.154;2024-02-26T03:54:22;7.40;56.80
8459;DHT22;4266;48.816;9.154;2024-02-26T03:56:48;7.40;56.80
8459;DHT22;4266;48.816;9.154;2024-02-26T03:59:14;7.40;56.40
8459;DHT22;4266;48.816;9.154;2024-02-26T04:01:44;7.40;56.20
8459;DHT22;4266;48.816;9.154;2024-02-26T04:04:05;7.30;56.10
8459;DHT22;4266;48.816;9.154;2024-02-26T04:06:31;7.20;56.10
8459;DHT22;4266;48.816;9.154;2024-02-26T04:08:56;7.20;56.40
8459;DHT22;4266;48.816;9.154;2024-02-26T04:11:22;7.30;57.10
8459;DHT22;4266;48.816;9.154;2024-02-26T04:13:48;7.30;57.00
8459;DHT22;4266;48.816;9.154;2024-02-26T04:16:15;7.30;56.60
8459;DHT22;4266;48.816;9.154;2024-02-26T04:18:41;7.20;56.20
8459;DHT22;4266;48.816;9.154;2024-02-26T04:21:06;7.20;55.20
8459;DHT22;4266;48.816;9.154;2024-02-26T04:23:33;7.20;55.90
8459;DHT22;4266;48.816;9.154;2024-02-26T04:25:59;7.20;55.80
8459;DHT22;4266;48.816;9.154;2024-02-26T04:28:24;7.30;55.80
8459;DHT22;4266;48.816;9.154;2024-02-26T04:30:51;7.30;55.30
8459;DHT22;4266;48.816;9.154;2024-02-26T04:33:16;7.30;55.70
8459;DHT22;4266;48.816;9.154;2024-02-26T04:35:42;7.20;55.40
8459;DHT22;4266;48.816;9.154;2024-02-26T04:38:08;7.20;55.80
8459;DHT22;4266;48.816;9.154;2024-02-26T04:40:33;7.20;55.40
8459;DHT22;4266;48.816;9.154;2024-02-26T04:42:59;7.30;55.40
8459;DHT22;4266;48.816;9.154;2024-02-26T04:45:25;7.40;55.50
8459;DHT22;4266;48.816;9.154;2024-02-26T04:47:51;7.40;55.40
8459;DHT22;4266;48.816;9.154;2024-02-26T04:50:18;7.40;55.10
8459;DHT22;4266;48.816;9.154;2024-02-26T04:52:43;7.40;55.10
8459;DHT22;4266;48.816;9.154;2024-02-26T04:55:09;7.40;54.70
8459;DHT22;4266;48.816;9.154;2024-02-26T04:57:35;7.30;55.30
8459;DHT22;4266;48.816;9.154;2024-02-26T05:00:00;7.30;55.60
8459;DHT22;4266;48.816;9.154;2024-02-26T05:02:26;7.20;55.50
8459;DHT22;4266;48.816;9.154;2024-02-26T05:04:52;7.30;55.60
8459;DHT22;4266;48.816;9.154;2024-02-26T05:07:17;7.40;55.00
8459;DHT22;4266;48.816;9.154;2024-02-26T05:09:44;7.30;55.30
8459;DHT22;4266;48.816;9.154;2024-02-26T05:12:09;7.30;55.20
8459;DHT22;4266;48.816;9.154;2024-02-26T05:14:36;7.20;55.70
8459;DHT22;4266;48.816;9.154;2024-02-26T05:17:01;7.20;55.90
8459;DHT22;4266;48.816;9.154;2024-02-26T05:19:28;7.20;55.40
8459;DHT22;4266;48.816;9.154;2024-02-26T05:21:54;7.20;55.40
8459;DHT22;4266;48.816;9.154;2024-02-26T05:24:19;7.30;56.10
8459;DHT22;4266;48.816;9.154;2024-02-26T05:26:45;7.40;55.10
8459;DHT22;4266;48.816;9.154;2024-02-26T05:29:11;7.40;55.60
8459;DHT22;4266;48.816;9.154;2024-02-26T05:31:38;7.20;55.80
8459;DHT22;4266;48.816;9.154;2024-02-26T05:34:03;7.20;55.80
8459;DHT22;4266;48.816;9.154;2024-02-26T05:36:30;7.20;55.90
8459;DHT22;4266;48.816;9.154;2024-02-26T05:38:55;7.10;55.80
8459;DHT22;4266;48.816;9.154;2024-02-26T05:41:21;7.20;56.60
8459;DHT22;4266;48.816;9.154;2024-02-26T05:43:49;7.20;56.30
8459;DHT22;4266;48.816;9.154;2024-02-26T05:46:16;7.40;56.30
8459;DHT22;4266;48.816;9.154;2024-02-26T05:48:40;7.40;56.30
8459;DHT22;4266;48.816;9.154;2024-02-26T05:51:06;7.40;57.10
8459;DHT22;4266;48.816;9.154;2024-02-26T05:53:32;7.40;57.10
8459;DHT22;4266;48.816;9.154;2024-02-26T05:55:58;7.40;57.50
8459;DHT22;4266;48.816;9.154;2024-02-26T05:58:23;7.30;57.10
8459;DHT22;4266;48.816;9.154;2024-02-26T06:00:50;7.20;58.90
8459;DHT22;4266;48.816;9.154;2024-02-26T06:03:15;7.20;58.90
8459;DHT22;4266;48.816;9.154;2024-02-26T06:05:41;7.30;58.50
8459;DHT22;4266;48.816;9.154;2024-02-26T06:08:07;7.20;58.60
8459;DHT22;4266;48.816;9.154;2024-02-26T06:10:33;7.20;59.30
8459;DHT22;4266;48.816;9.154;2024-02-26T06:12:59;7.00;63.20
8459;DHT22;4266;48.816;9.154;2024-02-26T06:15:25;7.00;63.30
8459;DHT22;4266;48.816;9.154;2024-02-26T06:17:50;6.90;68.50
8459;DHT22;4266;48.816;9.154;2024-02-26T06:20:16;6.90;70.90
8459;DHT22;4266;48.816;9.154;2024-02-26T06:22:42;6.70;72.20
8459;DHT22;4266;48.816;9.154;2024-02-26T06:25:08;6.70;74.20
8459;DHT22;4266;48.816;9.154;2024-02-26T06:27:34;6.70;76.30
8459;DHT22;4266;48.816;9.154;2024-02-26T06:30:00;6.70;76.60
8459;DHT22;4266;48.816;9.154;2024-02-26T06:32:25;6.70;76.50
8459;DHT22;4266;48.816;9.154;2024-02-26T06:34:51;6.90;73.60
8459;DHT22;4266;48.816;9.154;2024-02-26T06:37:17;7.10;67.90
8459;DHT22;4266;48.816;9.154;2024-02-26T06:39:43;7.10;67.90
8459;DHT22;4266;48.816;9.154;2024-02-26T06:42:09;7.20;68.60
8459;DHT22;4266;48.816;9.154;2024-02-26T06:44:35;7.10;77.40
8459;DHT22;4266;48.816;9.154;2024-02-26T06:47:02;7.10;78.10
8459;DHT22;4266;48.816;9.154;2024-02-26T06:49:27;7.10;78.10
8459;DHT22;4266;48.816;9.154;2024-02-26T06:51:53;7.20;80.90
8459;DHT22;4266;48.816;9.154;2024-02-26T06:54:19;6.90;81.90
8459;DHT22;4266;48.816;9.154;2024-02-26T06:56:45;6.90;81.90
8459;DHT22;4266;48.816;9.154;2024-02-26T06:59:11;7.00;85.00
8459;DHT22;4266;48.816;9.154;2024-02-26T07:01:36;7.10;83.90
8459;DHT22;4266;48.816;9.154;2024-02-26T07:04:03;7.10;81.70
8459;DHT22;4266;48.816;9.154;2024-02-26T07:06:29;7.20;79.50
8459;DHT22;4266;48.816;9.154;2024-02-26T07:08:55;7.20;79.50
8459;DHT22;4266;48.816;9.154;2024-02-26T07:11:21;7.10;80.10
8459;DHT22;4266;48.816;9.154;2024-02-26T07:13:47;7.10;80.10
8459;DHT22;4266;48.816;9.154;2024-02-26T07:16:13;7.20;80.30
8459;DHT22;4266;48.816;9.154;2024-02-26T07:18:39;7.20;79.60
8459;DHT22;4266;48.816;9.154;2024-02-26T07:21:04;7.20;79.00
8459;DHT22;4266;48.816;9.154;2024-02-26T07:23:31;7.10;78.70
8459;DHT22;4266;48.816;9.154;2024-02-26T07:25:56;7.10;78.60
8459;DHT22;4266;48.816;9.154;2024-02-26T07:28:22;7.20;79.00
8459;DHT22;4266;48.816;9.154;2024-02-26T07:30:47;7.30;81.40
8459;DHT22;4266;48.816;9.154;2024-02-26T07:33:14;7.30;76.20
8459;DHT22;4266;48.816;9.154;2024-02-26T07:35:39;7.30;76.20
8459;DHT22;4266;48.816;9.154;2024-02-26T07:38:05;7.30;80.10
8459;DHT22;4266;48.816;9.154;2024-02-26T07:40:31;7.30;79.20
8459;DHT22;4266;48.816;9.154;2024-02-26T07:42:56;7.40;79.30
8459;DHT22;4266;48.816;9.154;2024-02-26T07:45:22;7.60;77.00
8459;DHT22;4266;48.816;9.154;2024-02-26T07:47:49;7.80;75.90
8459;DHT22;4266;48.816;9.154;2024-02-26T07:50:14;7.70;75.80
8459;DHT22;4266;48.816;9.154;2024-02-26T07:52:40;7.90;75.90
8459;DHT22;4266;48.816;9.154;2024-02-26T07:55:07;7.90;73.60
8459;DHT22;4266;48.816;9.154;2024-02-26T07:57:34;8.00;72.90
8459;DHT22;4266;48.816;9.154;2024-02-26T08:00:00;7.90;72.80
8459;DHT22;4266;48.816;9.154;2024-02-26T08:02:25;8.00;71.00
8459;DHT22;4266;48.816;9.154;2024-02-26T08:04:52;8.00;70.10
8459;DHT22;4266;48.816;9.154;2024-02-26T08:07:17;8.00;70.10
8459;DHT22;4266;48.816;9.154;2024-02-26T08:09:43;8.10;68.90
8459;DHT22;4266;48.816;9.154;2024-02-26T08:12:09;8.20;68.30
8459;DHT22;4266;48.816;9.154;2024-02-26T08:14:34;8.30;68.00
8459;DHT22;4266;48.816;9.154;2024-02-26T08:17:00;8.40;68.80
8459;DHT22;4266;48.816;9.154;2024-02-26T08:19:26;8.50;68.60
8459;DHT22;4266;48.816;9.154;2024-02-26T08:21:52;8.50;68.60
8459;DHT22;4266;48.816;9.154;2024-02-26T08:24:18;8.40;67.80
8459;DHT22;4266;48.816;9.154;2024-02-26T08:26:43;8.30;66.80
8459;DHT22;4266;48.816;9.154;2024-02-26T08:29:09;8.30;67.40
8459;DHT22;4266;48.816;9.154;2024-02-26T08:31:35;8.50;67.20
8459;DHT22;4266;48.816;9.154;2024-02-26T08:34:01;8.40;65.80
8459;DHT22;4266;48.816;9.154;2024-02-26T08:36:27;8.40;65.80
8459;DHT22;4266;48.816;9.154;2024-02-26T08:38:53;8.80;64.80
8459;DHT22;4266;48.816;9.154;2024-02-26T08:41:20;8.90;65.00
8459;DHT22;4266;48.816;9.154;2024-02-26T08:43:45;8.90;64.90
8459;DHT22;4266;48.816;9.154;2024-02-26T08:46:12;8.80;62.90
8459;DHT22;4266;48.816;9.154;2024-02-26T08:48:38;8.80;62.80
8459;DHT22;4266;48.816;9.154;2024-02-26T08:51:06;8.90;63.20
8459;DHT22;4266;48.816;9.154;2024-02-26T08:53:31;9.00;61.30
8459;DHT22;4266;48.816;9.154;2024-02-26T08:55:56;9.10;61.50
8459;DHT22;4266;48.816;9.154;2024-02-26T08:58:22;9.30;61.50
8459;DHT22;4266;48.816;9.154;2024-02-26T09:00:48;9.40;60.20
8459;DHT22;4266;48.816;9.154;2024-02-26T09:03:14;9.40;59.50
8459;DHT22;4266;48.816;9.154;2024-02-26T09:05:40;9.40;59.50
8459;DHT22;4266;48.816;9.154;2024-02-26T09:08:06;9.30;59.20
8459;DHT22;4266;48.816;9.154;2024-02-26T09:10:32;9.50;59.00
8459;DHT22;4266;48.816;9.154;2024-02-26T09:12:58;9.60;59.40
8459;DHT22;4266;48.816;9.154;2024-02-26T09:15:25;9.80;59.10
8459;DHT22;4266;48.816;9.154;2024-02-26T09:17:50;9.80;59.00
8459;DHT22;4266;48.816;9.154;2024-02-26T09:20:17;9.80;58.20
8459;DHT22;4266;48.816;9.154;2024-02-26T09:22:42;9.80;58.20
8459;DHT22;4266;48.816;9.154;2024-02-26T09:25:08;9.90;57.90
8459;DHT22;4266;48.816;9.154;2024-02-26T09:27:34;10.00;55.90
8459;DHT22;4266;48.816;9.154;2024-02-26T09:30:00;9.90;56.70
8459;DHT22;4266;48.816;9.154;2024-02-26T09:32:26;9.90;58.30
8459;DHT22;4266;48.816;9.154;2024-02-26T09:34:52;9.90;58.30
8459;DHT22;4266;48.816;9.154;2024-02-26T09:37:18;10.10;56.50
8459;DHT22;4266;48.816;9.154;2024-02-26T09:39:43;10.10;57.30
8459;DHT22;4266;48.816;9.154;2024-02-26T09:42:09;10.10;59.40
8459;DHT22;4266;48.816;9.154;2024-02-26T09:44:36;10.00;59.30
8459;DHT22;4266;48.816;9.154;2024-02-26T09:47:00;9.90;60.50
8459;DHT22;4266;48.816;9.154;2024-02-26T09:49:27;10.20;60.90
8459;DHT22;4266;48.816;9.154;2024-02-26T09:51:53;10.20;60.90
8459;DHT22;4266;48.816;9.154;2024-02-26T09:54:19;10.40;62.10
8459;DHT22;4266;48.816;9.154;2024-02-26T09:56:44;10.80;60.70
8459;DHT22;4266;48.816;9.154;2024-02-26T09:59:10;11.10;61.00
8459;DHT22;4266;48.816;9.154;2024-02-26T10:01:36;11.40;59.90
8459;DHT22;4266;48.816;9.154;2024-02-26T10:04:01;11.50;58.80
8459;DHT22;4266;48.816;9.154;2024-02-26T10:06:27;11.70;59.10
8459;DHT22;4266;48.816;9.154;2024-02-26T10:08:53;12.70;59.80
8459;DHT22;4266;48.816;9.154;2024-02-26T10:11:20;14.90;55.10
8459;DHT22;4266;48.816;9.154;2024-02-26T10:13:46;14.90;55.00
8459;DHT22;4266;48.816;9.154;2024-02-26T10:16:11;14.70;53.30
8459;DHT22;4266;48.816;9.154;2024-02-26T10:18:52;15.40;52.20
8459;DHT22;4266;48.816;9.154;2024-02-26T10:21:18;15.70;50.50
8459;DHT22;4266;48.816;9.154;2024-02-26T10:23:43;16.00;51.10
8459;DHT22;4266;48.816;9.154;2024-02-26T10:26:10;15.30;50.10
8459;DHT22;4266;48.816;9.154;2024-02-26T10:28:34;17.20;50.00
8459;DHT22;4266;48.816;9.154;2024-02-26T10:31:01;17.80;48.30
8459;DHT22;4266;48.816;9.154;2024-02-26T10:33:26;17.80;48.30
8459;DHT22;4266;48.816;9.154;2024-02-26T10:35:53;17.20;48.00
8459;DHT22;4266;48.816;9.154;2024-02-26T10:38:19;17.10;48.20
8459;DHT22;4266;48.816;9.154;2024-02-26T10:40:44;16.60;47.30
8459;DHT22;4266;48.816;9.154;2024-02-26T10:43:10;16.80;47.20
8459;DHT22;4266;48.816;9.154;2024-02-26T10:45:36;16.90;45.70
8459;DHT22;4266;48.816;9.154;2024-02-26T10:48:01;16.40;46.20
8459;DHT22;4266;48.816;9.154;2024-02-26T10:50:27;16.40;45.50
8459;DHT22;4266;48.816;9.154;2024-02-26T10:52:53;16.90;45.30
8459;DHT22;4266;48.816;9.154;2024-02-26T10:55:19;17.00;45.20
8459;DHT22;4266;48.816;9.154;2024-02-26T10:57:45;17.00;45.20
8459;DHT22;4266;48.816;9.154;2024-02-26T11:00:13;16.90;45.40
8459;DHT22;4266;48.816;9.154;2024-02-26T11:02:38;17.60;44.90
8459;DHT22;4266;48.816;9.154;2024-02-26T11:05:05;17.60;44.90
8459;DHT22;4266;48.816;9.154;2024-02-26T11:07:31;17.50;44.50
8459;DHT22;4266;48.816;9.154;2024-02-26T11:09:57;17.60;44.60
8459;DHT22;4266;48.816;9.154;2024-02-26T11:12:22;18.20;44.20
8459;DHT22;4266;48.816;9.154;2024-02-26T11:14:48;19.20;44.20
8459;DHT22;4266;48.816;9.154;2024-02-26T11:17:14;19.40;43.70
8459;DHT22;4266;48.816;9.154;2024-02-26T11:19:40;21.00;42.00
8459;DHT22;4266;48.816;9.154;2024-02-26T11:22:06;20.90;41.90
8459;DHT22;4266;48.816;9.154;2024-02-26T11:24:31;21.30;42.00
8459;DHT22;4266;48.816;9.154;2024-02-26T11:26:58;19.90;42.60
8459;DHT22;4266;48.816;9.154;2024-02-26T11:29:25;19.80;42.60
8459;DHT22;4266;48.816;9.154;2024-02-26T11:31:50;19.10;42.20
8459;DHT22;4266;48.816;9.154;2024-02-26T11:34:16;19.10;42.30
8459;DHT22;4266;48.816;9.154;2024-02-26T11:36:41;18.40;42.30
8459;DHT22;4266;48.816;9.154;2024-02-26T11:39:07;18.50;42.30
8459;DHT22;4266;48.816;9.154;2024-02-26T11:41:33;18.20;42.60
8459;DHT22;4266;48.816;9.154;2024-02-26T11:44:00;18.10;42.20
8459;DHT22;4266;48.816;9.154;2024-02-26T11:46:30;18.80;42.30
8459;DHT22;4266;48.816;9.154;2024-02-26T11:48:58;18.30;42.30
8459;DHT22;4266;48.816;9.154;2024-02-26T11:51:26;17.80;42.10
8459;DHT22;4266;48.816;9.154;2024-02-26T11:53:51;18.60;42.30
8459;DHT22;4266;48.816;9.154;2024-02-26T11:56:21;18.30;42.30
8459;DHT22;4266;48.816;9.154;2024-02-26T11:58:53;17.50;42.60
8459;DHT22;4266;48.816;9.154;2024-02-26T12:03:54;17.20;42.50
8459;DHT22;4266;48.816;9.154;2024-02-26T12:06:19;16.60;43.00
8459;DHT22;4266;48.816;9.154;2024-02-26T12:08:45;16.30;42.80
8459;DHT22;4266;48.816;9.154;2024-02-26T12:11:14;16.70;43.60
8459;DHT22;4266;48.816;9.154;2024-02-26T12:13:40;16.40;43.10
8459;DHT22;4266;48.816;9.154;2024-02-26T12:16:06;16.10;43.40
8459;DHT22;4266;48.816;9.154;2024-02-26T12:18:31;15.60;43.30
8459;DHT22;4266;48.816;9.154;2024-02-26T12:20:59;15.50;44.10
8459;DHT22;4266;48.816;9.154;2024-02-26T12:23:25;15.50;43.90
8459;DHT22;4266;48.816;9.154;2024-02-26T12:25:50;15.50;43.40
8459;DHT22;4266;48.816;9.154;2024-02-26T12:28:17;14.90;43.80
8459;DHT22;4266;48.816;9.154;2024-02-26T12:30:42;14.80;43.70
8459;DHT22;4266;48.816;9.154;2024-02-26T12:33:09;14.90;44.00
8459;DHT22;4266;48.816;9.154;2024-02-26T12:35:35;14.90;44.00
8459;DHT22;4266;48.816;9.154;2024-02-26T12:38:00;14.80;43.60
8459;DHT22;4266;48.816;9.154;2024-02-26T12:40:26;14.60;43.90
8459;DHT22;4266;48.816;9.154;2024-02-26T12:42:53;14.80;44.60
8459;DHT22;4266;48.816;9.154;2024-02-26T12:45:17;14.90;44.20
8459;DHT22;4266;48.816;9.154;2024-02-26T12:47:43;15.10;43.80
8459;DHT22;4266;48.816;9.154;2024-02-26T12:50:09;15.20;43.60
8459;DHT22;4266;48.816;9.154;2024-02-26T12:52:35;15.10;43.70
8459;DHT22;4266;48.816;9.154;2024-02-26T12:55:01;15.30;43.70
8459;DHT22;4266;48.816;9.154;2024-02-26T12:57:27;15.30;43.70
8459;DHT22;4266;48.816;9.154;2024-02-26T12:59:52;15.70;44.10
8459;DHT22;4266;48.816;9.154;2024-02-26T13:02:18;15.70;44.30
8459;DHT22;4266;48.816;9.154;2024-02-26T13:04:44;15.50;44.30
8459;DHT22;4266;48.816;9.154;2024-02-26T13:07:10;15.50;44.30
8459;DHT22;4266;48.816;9.154;2024-02-26T13:09:36;16.10;44.10
8459;DHT22;4266;48.816;9.154;2024-02-26T13:12:04;16.10;44.00
8459;DHT22;4266;48.816;9.154;2024-02-26T13:14:29;16.10;44.30
8459;DHT22;4266;48.816;9.154;2024-02-26T13:16:55;16.10;43.90
8459;DHT22;4266;48.816;9.154;2024-02-26T13:19:20;16.20;44.20
8459;DHT22;4266;48.816;9.154;2024-02-26T13:21:46;16.50;43.80
8459;DHT22;4266;48.816;9.154;2024-02-26T13:24:12;16.50;43.80
8459;DHT22;4266;48.816;9.154;2024-02-26T13:26:38;16.60;44.00
8459;DHT22;4266;48.816;9.154;2024-02-26T13:29:05;17.00;44.00
8459;DHT22;4266;48.816;9.154;2024-02-26T13:31:32;17.30;43.40
8459;DHT22;4266;48.816;9.154;2024-02-26T13:33:57;17.30;43.40
8459;DHT22;4266;48.816;9.154;2024-02-26T13:36:23;17.40;43.40
8459;DHT22;4266;48.816;9.154;2024-02-26T13:38:52;17.60;43.50
8459;DHT22;4266;48.816;9.154;2024-02-26T13:41:17;17.60;43.60
8459;DHT22;4266;48.816;9.154;2024-02-26T13:43:43;17.40;43.60
8459;DHT22;4266;48.816;9.154;2024-02-26T13:46:09;17.30;43.50
8459;DHT22;4266;48.816;9.154;2024-02-26T13:48:36;17.20;43.90
8459;DHT22;4266;48.816;9.154;2024-02-26T13:51:03;16.80;44.90
8459;DHT22;4266;48.816;9.154;2024-02-26T13:53:30;17.00;45.10
8459;DHT22;4266;48.816;9.154;2024-02-26T13:55:56;16.80;45.10
8459;DHT22;4266;48.816;9.154;2024-02-26T13:58:22;16.70;45.00
8459;DHT22;4266;48.816;9.154;2024-02-26T14:00:48;17.00;44.80
8459;DHT22;4266;48.816;9.154;2024-02-26T14:03:14;17.00;44.70
8459;DHT22;4266;48.816;9.154;2024-02-26T14:05:39;16.90;44.90
8459;DHT22;4266;48.816;9.154;2024-02-26T14:08:06;16.90;45.00
8459;DHT22;4266;48.816;9.154;2024-02-26T14:10:32;17.20;44.50
8459;DHT22;4266;48.816;9.154;2024-02-26T14:12:58;17.70;44.40
8459;DHT22;4266;48.816;9.154;2024-02-26T14:15:24;17.50;44.30
8459;DHT22;4266;48.816;9.154;2024-02-26T14:17:51;17.40;44.20
8459;DHT22;4266;48.816;9.154;2024-02-26T14:20:16;17.00;43.80
8459;DHT22;4266;48.816;9.154;2024-02-26T14:22:42;16.60;44.10
8459;DHT22;4266;48.816;9.154;2024-02-26T14:25:08;16.30;44.20
8459;DHT22;4266;48.816;9.154;2024-02-26T14:27:33;16.20;43.80
8459;DHT22;4266;48.816;9.154;2024-02-26T14:29:59;16.20;43.60
8459;DHT22;4266;48.816;9.154;2024-02-26T14:32:25;16.10;43.90
8459;DHT22;4266;48.816;9.154;2024-02-26T14:34:51;16.10;44.80
8459;DHT22;4266;48.816;9.154;2024-02-26T14:37:17;16.20;44.90
8459;DHT22;4266;48.816;9.154;2024-02-26T14:39:43;16.20;44.80
8459;DHT22;4266;48.816;9.154;2024-02-26T14:42:09;16.20;45.00
8459;DHT22;4266;48.816;9.154;2024-02-26T14:44:34;15.90;44.60
8459;DHT22;4266;48.816;9.154;2024-02-26T14:47:00;15.90;44.80
8459;DHT22;4266;48.816;9.154;2024-02-26T14:49:26;15.70;44.70
8459;DHT22;4266;48.816;9.154;2024-02-26T14:51:51;15.20;44.90
8459;DHT22;4266;48.816;9.154;2024-02-26T14:54:17;15.20;45.10
8459;DHT22;4266;48.816;9.154;2024-02-26T14:56:43;15.20;45.30
8459;DHT22;4266;48.816;9.154;2024-02-26T14:59:08;15.10;45.30
8459;DHT22;4266;48.816;9.154;2024-02-26T15:01:34;15.20;45.50
8459;DHT22;4266;48.816;9.154;2024-02-26T15:04:00;15.10;45.20
8459;DHT22;4266;48.816;9.154;2024-02-26T15:06:26;14.90;45.40
8459;DHT22;4266;48.816;9.154;2024-02-26T15:08:52;14.70;45.60
8459;DHT22;4266;48.816;9.154;2024-02-26T15:11:18;14.50;46.20
8459;DHT22;4266;48.816;9.154;2024-02-26T15:13:44;14.50;45.80
8459;DHT22;4266;48.816;9.154;2024-02-26T15:16:16;14.40;46.20
8459;DHT22;4266;48.816;9.154;2024-02-26T15:18:41;14.30;46.10
8459;DHT22;4266;48.816;9.154;2024-02-26T15:21:07;14.40;46.30
8459;DHT22;4266;48.816;9.154;2024-02-26T15:23:33;14.10;46.30
8459;DHT22;4266;48.816;9.154;2024-02-26T15:25:58;14.10;46.50
8459;DHT22;4266;48.816;9.154;2024-02-26T15:28:25;14.10;46.50
8459;DHT22;4266;48.816;9.154;2024-02-26T15:30:50;14.10;46.50
8459;DHT22;4266;48.816;9.154;2024-02-26T15:33:16;14.00;46.80
8459;DHT22;4266;48.816;9.154;2024-02-26T15:35:43;13.70;46.90
8459;DHT22;4266;48.816;9.154;2024-02-26T15:38:08;13.70;46.80
8459;DHT22;4266;48.816;9.154;2024-02-26T15:40:35;13.60;47.30
8459;DHT22;4266;48.816;9.154;2024-02-26T15:43:00;13.60;47.30
8459;DHT22;4266;48.816;9.154;2024-02-26T15:45:27;13.60;47.40
8459;DHT22;4266;48.816;9.154;2024-02-26T15:47:52;13.40;48.00
8459;DHT22;4266;48.816;9.154;2024-02-26T15:50:19;13.40;47.70
8459;DHT22;4266;48.816;9.154;2024-02-26T15:52:45;13.30;47.60
8459;DHT22;4266;48.816;9.154;2024-02-26T15:55:11;13.30;47.80
8459;DHT22;4266;48.816;9.154;2024-02-26T15:57:37;13.20;48.00
8459;DHT22;4266;48.816;9.154;2024-02-26T16:00:03;13.10;47.90
8459;DHT22;4266;48.816;9.154;2024-02-26T16:02:29;13.00;47.90
8459;DHT22;4266;48.816;9.154;2024-02-26T16:04:56;12.90;48.30